Time;durP1;ratioP1;P1;durP2;ratioP2;P2;SDS_P1;SDS_P2;PMS_P1;PMS_P2;Temp;Humidity;BMP_temperature;BMP_pressure;BME280_temperature;BME280_humidity;BME280_pressure;Samples;Min_cycle;Max_cycle;Signal;HPM_P1;HPM_P2
2021/03/10 00:01:23;;;;;;;23.73;18.53;;;;;;;;;;5033977;28;20680;-75
2021/03/10 00:03:49;;;;;;;23.60;17.87;;;;;;;;;;5032538;28;20232;-75
2021/03/10 00:06:16;;;;;;;22.33;18.33;;;;;;;;;;5033847;28;20178;-76
2021/03/10 00:08:42;;;;;;;26.80;18.90;;;;;;;;;;5035781;28;20190;-75
2021/03/10 00:11:08;;;;;;;22.70;17.30;;;;;;;;;;5034304;28;20186;-75
2021/03/10 00:13:34;;;;;;;21.10;16.83;;;;;;;;;;5033661;28;20291;-75
2021/03/10 00:16:00;;;;;;;22.80;18.03;;;;;;;;;;5033812;28;20177;-75
2021/03/10 00:18:27;;;;;;;23.70;19.27;;;;;;;;;;5034085;28;20226;-75
2021/03/10 00:20:53;;;;;;;22.30;17.43;;;;;;;;;;5027023;28;20938;-75
2021/03/10 00:23:19;;;;;;;25.93;18.17;;;;;;;;;;5020511;28;20668;-75
2021/03/10 00:25:45;;;;;;;23.10;18.20;;;;;;;;;;5031766;28;20178;-75
2021/03/10 00:28:11;;;;;;;21.43;17.73;;;;;;;;;;5033630;28;20195;-74
2021/03/10 00:30:37;;;;;;;20.33;17.33;;;;;;;;;;5029898;28;20198;-74
2021/03/10 00:33:03;;;;;;;19.23;16.70;;;;;;;;;;5029666;28;20202;-74
2021/03/10 00:35:30;;;;;;;20.93;16.97;;;;;;;;;;5014349;28;20221;-74
2021/03/10 00:37:57;;;;;;;21.97;17.50;;;;;;;;;;5014461;28;20179;-75
2021/03/10 00:40:23;;;;;;;21.53;16.37;;;;;;;;;;5013102;28;20286;-74
2021/03/10 00:42:49;;;;;;;20.97;17.17;;;;;;;;;;5011471;28;20193;-75
2021/03/10 00:45:15;;;;;;;21.03;17.13;;;;;;;;;;5017587;28;20186;-75
2021/03/10 00:47:41;;;;;;;21.30;16.40;;;;;;;;;;5014419;28;20182;-75
2021/03/10 00:50:07;;;;;;;24.67;17.77;;;;;;;;;;5015882;28;20178;-75
2021/03/10 00:52:34;;;;;;;24.03;18.23;;;;;;;;;;5013688;28;20286;-75
2021/03/10 00:55:00;;;;;;;22.80;17.80;;;;;;;;;;5015831;28;20207;-75
2021/03/10 00:57:26;;;;;;;21.93;17.30;;;;;;;;;;5015305;28;20633;-75
2021/03/10 00:59:52;;;;;;;23.00;18.63;;;;;;;;;;5014476;28;20262;-75
2021/03/10 01:02:18;;;;;;;25.30;19.17;;;;;;;;;;5030804;28;20665;-75
2021/03/10 01:04:44;;;;;;;27.80;18.60;;;;;;;;;;5033153;28;20205;-75
2021/03/10 01:07:10;;;;;;;26.63;19.10;;;;;;;;;;5033119;28;20182;-75
2021/03/10 01:09:36;;;;;;;25.03;18.00;;;;;;;;;;5034208;28;20208;-75
2021/03/10 01:12:02;;;;;;;23.87;18.87;;;;;;;;;;5032895;28;20585;-74
2021/03/10 01:14:28;;;;;;;24.07;18.53;;;;;;;;;;5033164;28;20204;-75
2021/03/10 01:16:54;;;;;;;25.43;18.77;;;;;;;;;;5034707;28;20177;-75
2021/03/10 01:19:20;;;;;;;25.57;19.17;;;;;;;;;;5034050;28;20178;-75
2021/03/10 01:21:47;;;;;;;22.73;18.63;;;;;;;;;;5034159;28;20188;-74
2021/03/10 01:24:14;;;;;;;23.50;18.77;;;;;;;;;;5034171;28;20174;-75
2021/03/10 01:26:40;;;;;;;27.50;18.93;;;;;;;;;;5033970;28;20174;-75
2021/03/10 01:29:06;;;;;;;24.60;19.03;;;;;;;;;;5032826;28;20178;-75
2021/03/10 01:31:32;;;;;;;25.17;19.03;;;;;;;;;;5034057;28;20229;-75
2021/03/10 01:33:58;;;;;;;27.07;18.33;;;;;;;;;;5033905;28;20730;-75
2021/03/10 01:36:24;;;;;;;22.90;18.43;;;;;;;;;;5033781;28;20571;-75
2021/03/10 01:38:50;;;;;;;23.90;18.67;;;;;;;;;;5034039;28;20265;-74
2021/03/10 01:41:16;;;;;;;25.27;18.67;;;;;;;;;;5023575;28;20178;-75
2021/03/10 01:43:42;;;;;;;26.13;18.40;;;;;;;;;;5009370;28;20239;-74
2021/03/10 01:46:09;;;;;;;22.23;17.27;;;;;;;;;;5033896;28;20534;-74
2021/03/10 01:48:35;;;;;;;25.47;17.47;;;;;;;;;;5034113;28;20206;-74
2021/03/10 01:51:05;;;;;;;23.67;17.50;;;;;;;;;;5031622;28;20194;-75
2021/03/10 01:53:33;;;;;;;23.73;17.30;;;;;;;;;;5033743;28;20210;-75
2021/03/10 01:56:00;;;;;;;22.57;17.30;;;;;;;;;;5016347;28;20213;-75
2021/03/10 01:58:26;;;;;;;23.87;18.33;;;;;;;;;;5032521;28;20182;-74
2021/03/10 02:00:52;;;;;;;23.57;18.20;;;;;;;;;;5032732;28;20187;-75
2021/03/10 02:03:18;;;;;;;24.67;18.50;;;;;;;;;;5032170;28;20208;-74
2021/03/10 02:05:44;;;;;;;23.83;18.13;;;;;;;;;;5033703;28;20636;-74
2021/03/10 02:08:16;;;;;;;25.53;17.77;;;;;;;;;;5033847;28;20186;-74
2021/03/10 02:11:01;;;;;;;25.37;18.83;;;;;;;;;;5033901;28;20179;-74
2021/03/10 02:13:45;;;;;;;25.90;18.17;;;;;;;;;;5033390;28;20587;-75
2021/03/10 02:16:29;;;;;;;24.77;18.27;;;;;;;;;;5033438;28;20184;-74
2021/03/10 02:19:02;;;;;;;26.13;18.73;;;;;;;;;;5032236;28;20174;-74
2021/03/10 02:21:27;;;;;;;23.17;18.53;;;;;;;;;;5017841;28;20195;-75
2021/03/10 02:24:06;;;;;;;24.50;18.70;;;;;;;;;;5033455;28;20672;-74
2021/03/10 02:26:33;;;;;;;21.07;17.63;;;;;;;;;;5033620;28;20186;-74
2021/03/10 02:29:07;;;;;;;23.43;18.70;;;;;;;;;;5032480;28;20708;-75
2021/03/10 02:31:38;;;;;;;22.33;17.57;;;;;;;;;;5032100;28;20190;-74
2021/03/10 02:34:06;;;;;;;23.17;17.70;;;;;;;;;;5033651;28;20206;-75
2021/03/10 02:36:32;;;;;;;24.93;18.53;;;;;;;;;;5033343;28;20205;-75
2021/03/10 02:39:00;;;;;;;23.27;18.47;;;;;;;;;;5033748;28;20235;-75
2021/03/10 02:41:28;;;;;;;23.27;17.90;;;;;;;;;;5025047;28;20188;-75
2021/03/10 02:43:54;;;;;;;25.93;18.43;;;;;;;;;;5033550;28;20205;-74
2021/03/10 02:46:21;;;;;;;24.43;19.43;;;;;;;;;;5031935;28;20192;-75
2021/03/10 02:48:47;;;;;;;25.10;18.60;;;;;;;;;;5035396;28;20181;-74
2021/03/10 02:51:16;;;;;;;23.83;18.17;;;;;;;;;;5037175;28;20676;-76
2021/03/10 02:53:43;;;;;;;24.03;18.37;;;;;;;;;;5036843;28;20210;-75
2021/03/10 02:56:10;;;;;;;23.23;18.07;;;;;;;;;;5035916;28;20181;-76
2021/03/10 02:58:37;;;;;;;22.17;17.87;;;;;;;;;;5036690;28;20175;-75
2021/03/10 03:01:03;;;;;;;22.50;17.30;;;;;;;;;;5035844;28;20262;-75
2021/03/10 03:03:30;;;;;;;26.93;19.23;;;;;;;;;;5036816;28;20281;-74
2021/03/10 03:05:56;;;;;;;24.23;18.80;;;;;;;;;;5036773;28;20213;-75
2021/03/10 03:08:22;;;;;;;27.73;18.80;;;;;;;;;;5036812;28;20186;-75
2021/03/10 03:10:48;;;;;;;25.47;18.00;;;;;;;;;;5035252;28;20277;-74
2021/03/10 03:15:44;;;;;;;24.20;18.77;;;;;;;;;;5014053;28;20238;-77
2021/03/10 03:18:10;;;;;;;23.40;17.97;;;;;;;;;;5037515;28;20243;-76
2021/03/10 03:20:36;;;;;;;25.67;18.83;;;;;;;;;;5041720;28;20186;-77
2021/03/10 03:23:04;;;;;;;25.03;18.73;;;;;;;;;;5046758;28;20197;-77
2021/03/10 03:25:33;;;;;;;27.57;18.83;;;;;;;;;;5046256;28;20228;-77
2021/03/10 03:28:03;;;;;;;26.10;18.93;;;;;;;;;;5040910;28;20256;-77
2021/03/10 03:30:32;;;;;;;25.20;18.97;;;;;;;;;;5037818;28;20712;-77
2021/03/10 03:32:58;;;;;;;29.50;19.30;;;;;;;;;;5037827;28;20187;-78
2021/03/10 03:35:24;;;;;;;24.37;18.30;;;;;;;;;;5037644;28;20839;-77
2021/03/10 03:37:51;;;;;;;27.30;19.87;;;;;;;;;;5036888;28;20188;-77
2021/03/10 03:40:18;;;;;;;25.23;19.40;;;;;;;;;;5035693;28;20191;-77
2021/03/10 03:42:45;;;;;;;25.67;18.50;;;;;;;;;;5031012;28;20188;-77
2021/03/10 03:45:15;;;;;;;23.90;18.07;;;;;;;;;;5037297;28;20255;-78
2021/03/10 03:47:41;;;;;;;29.27;19.57;;;;;;;;;;5036522;28;20182;-77
2021/03/10 03:50:09;;;;;;;28.33;18.83;;;;;;;;;;5022554;28;20181;-77
2021/03/10 03:52:39;;;;;;;26.93;18.97;;;;;;;;;;5036449;28;20186;-77
2021/03/10 03:55:06;;;;;;;26.33;20.40;;;;;;;;;;5036237;28;20212;-77
2021/03/10 03:57:32;;;;;;;30.47;20.63;;;;;;;;;;5036577;28;20191;-77
2021/03/10 03:59:58;;;;;;;25.47;18.93;;;;;;;;;;5035870;28;20188;-77
2021/03/10 04:02:24;;;;;;;25.60;18.37;;;;;;;;;;5036411;28;20173;-77
2021/03/10 04:04:50;;;;;;;23.50;18.70;;;;;;;;;;5035172;28;20206;-77
2021/03/10 04:07:16;;;;;;;24.17;18.63;;;;;;;;;;5016475;28;20193;-76
2021/03/10 04:09:42;;;;;;;21.70;16.90;;;;;;;;;;5007276;28;20568;-76
2021/03/10 04:12:09;;;;;;;25.80;19.33;;;;;;;;;;5001152;28;20285;-76
2021/03/10 04:14:35;;;;;;;22.20;17.80;;;;;;;;;;5006597;28;20739;-76
2021/03/10 04:17:01;;;;;;;23.83;18.73;;;;;;;;;;5000760;28;20186;-76
2021/03/10 04:19:28;;;;;;;27.70;19.80;;;;;;;;;;4993906;28;20784;-76
2021/03/10 04:21:54;;;;;;;28.13;19.33;;;;;;;;;;4998253;28;20203;-76
2021/03/10 04:24:20;;;;;;;26.60;19.73;;;;;;;;;;5002087;28;20233;-75
2021/03/10 04:26:46;;;;;;;26.77;19.97;;;;;;;;;;5004813;28;20194;-74
2021/03/10 04:29:12;;;;;;;26.43;19.27;;;;;;;;;;5027311;28;20581;-75
2021/03/10 04:31:38;;;;;;;26.57;19.90;;;;;;;;;;4996004;28;20202;-77
2021/03/10 04:34:05;;;;;;;26.90;20.03;;;;;;;;;;4994559;28;20674;-76
2021/03/10 04:36:31;;;;;;;31.47;20.07;;;;;;;;;;4992639;28;20183;-76
2021/03/10 04:38:56;;;;;;;31.37;19.83;;;;;;;;;;4997038;28;20185;-77
2021/03/10 04:41:23;;;;;;;27.13;19.93;;;;;;;;;;5010155;28;20295;-76
2021/03/10 04:43:49;;;;;;;27.07;19.90;;;;;;;;;;4994874;28;20792;-74
2021/03/10 04:46:15;;;;;;;28.87;20.13;;;;;;;;;;4991559;28;20212;-76
2021/03/10 04:48:41;;;;;;;30.27;20.50;;;;;;;;;;4995919;28;20260;-76
2021/03/10 04:51:08;;;;;;;33.57;22.63;;;;;;;;;;4994580;28;20193;-76
2021/03/10 04:53:34;;;;;;;30.97;20.57;;;;;;;;;;4994304;28;20225;-76
2021/03/10 04:56:00;;;;;;;27.23;20.27;;;;;;;;;;5034625;28;20188;-78
2021/03/10 04:58:26;;;;;;;33.10;21.70;;;;;;;;;;5034961;28;20236;-77
2021/03/10 05:00:52;;;;;;;30.17;21.53;;;;;;;;;;5022137;28;20554;-76
2021/03/10 05:03:18;;;;;;;29.53;21.27;;;;;;;;;;5002171;28;20293;-76
2021/03/10 05:05:44;;;;;;;37.93;24.13;;;;;;;;;;5012182;28;20651;-76
2021/03/10 05:08:11;;;;;;;32.90;23.10;;;;;;;;;;5022718;28;20180;-76
2021/03/10 05:10:37;;;;;;;33.27;23.03;;;;;;;;;;5005421;28;20273;-76
2021/03/10 05:13:03;;;;;;;33.80;21.87;;;;;;;;;;5032741;28;20174;-79
2021/03/10 05:15:29;;;;;;;31.80;23.20;;;;;;;;;;5029222;28;20228;-76
2021/03/10 05:17:55;;;;;;;33.53;22.73;;;;;;;;;;5008052;28;20232;-76
2021/03/10 05:20:21;;;;;;;32.33;22.13;;;;;;;;;;5031305;28;20326;-76
2021/03/10 05:22:48;;;;;;;33.63;23.67;;;;;;;;;;5032177;28;20176;-76
2021/03/10 05:25:14;;;;;;;34.57;22.80;;;;;;;;;;5021435;28;20320;-76
2021/03/10 05:27:40;;;;;;;38.37;24.30;;;;;;;;;;5028972;28;20674;-76
2021/03/10 05:30:07;;;;;;;35.03;23.83;;;;;;;;;;5029335;28;20189;-76
2021/03/10 05:32:34;;;;;;;37.23;25.00;;;;;;;;;;5011181;28;20287;-77
2021/03/10 05:35:00;;;;;;;38.67;25.83;;;;;;;;;;5006044;28;20637;-76
2021/03/10 05:37:26;;;;;;;39.73;25.07;;;;;;;;;;5025511;28;20264;-76
2021/03/10 05:39:53;;;;;;;41.97;26.03;;;;;;;;;;5029418;28;20539;-77
2021/03/10 05:42:19;;;;;;;38.87;24.30;;;;;;;;;;5017776;28;20190;-76
2021/03/10 05:44:49;;;;;;;45.30;23.87;;;;;;;;;;4996775;28;20251;-76
2021/03/10 05:47:15;;;;;;;38.70;24.10;;;;;;;;;;5001792;28;20522;-76
2021/03/10 05:49:41;;;;;;;33.80;23.63;;;;;;;;;;5002881;28;20545;-76
2021/03/10 05:52:07;;;;;;;35.53;24.10;;;;;;;;;;4998178;28;20714;-76
2021/03/10 05:54:36;;;;;;;32.47;22.70;;;;;;;;;;4995768;28;20225;-79
2021/03/10 05:57:03;;;;;;;34.70;23.80;;;;;;;;;;4994649;28;20183;-77
2021/03/10 05:59:29;;;;;;;33.07;23.00;;;;;;;;;;5034660;28;20181;-77
2021/03/10 06:01:55;;;;;;;33.50;22.73;;;;;;;;;;5032854;28;20266;-76
2021/03/10 06:04:24;;;;;;;35.40;23.20;;;;;;;;;;5033105;28;20196;-77
2021/03/10 06:06:50;;;;;;;35.63;23.73;;;;;;;;;;5033508;28;20268;-77
2021/03/10 06:09:20;;;;;;;37.50;23.90;;;;;;;;;;5033985;28;20552;-76
2021/03/10 06:11:56;;;;;;;33.13;22.93;;;;;;;;;;5022934;28;20201;-77
2021/03/10 06:14:23;;;;;;;35.80;23.97;;;;;;;;;;5025410;28;20217;-77
2021/03/10 06:17:00;;;;;;;36.97;24.17;;;;;;;;;;5035314;28;20212;-77
2021/03/10 06:19:26;;;;;;;36.47;24.13;;;;;;;;;;5035042;28;20174;-77
2021/03/10 06:21:52;;;;;;;35.80;24.00;;;;;;;;;;5016597;28;20319;-76
2021/03/10 06:24:18;;;;;;;37.07;24.27;;;;;;;;;;5017149;28;20214;-76
2021/03/10 06:26:53;;;;;;;31.90;23.07;;;;;;;;;;5014715;28;20178;-77
2021/03/10 06:29:19;;;;;;;33.83;22.97;;;;;;;;;;5010758;28;20218;-76
2021/03/10 06:31:45;;;;;;;34.93;24.23;;;;;;;;;;5012177;28;20706;-76
2021/03/10 06:34:12;;;;;;;36.47;23.40;;;;;;;;;;5037802;28;20210;-77
2021/03/10 06:36:39;;;;;;;32.97;22.97;;;;;;;;;;5023774;28;20236;-77
2021/03/10 06:39:07;;;;;;;34.87;22.50;;;;;;;;;;5009617;28;20216;-77
2021/03/10 06:41:34;;;;;;;40.37;26.00;;;;;;;;;;5025378;28;20224;-77
2021/03/10 06:44:01;;;;;;;33.53;24.13;;;;;;;;;;5038317;28;20201;-77
2021/03/10 06:46:27;;;;;;;39.50;24.90;;;;;;;;;;5029094;28;20240;-76
2021/03/10 06:49:00;;;;;;;36.57;24.37;;;;;;;;;;5014757;28;20186;-77
2021/03/10 06:51:28;;;;;;;38.13;23.60;;;;;;;;;;5037895;28;20188;-77
2021/03/10 06:53:54;;;;;;;35.80;23.07;;;;;;;;;;5037893;28;20341;-77
2021/03/10 06:56:21;;;;;;;36.97;23.50;;;;;;;;;;5036723;28;20182;-77
2021/03/10 06:58:57;;;;;;;34.20;22.57;;;;;;;;;;5036526;28;20175;-76
2021/03/10 07:01:24;;;;;;;33.50;22.70;;;;;;;;;;5038132;28;20310;-77
2021/03/10 07:03:50;;;;;;;34.33;23.00;;;;;;;;;;5037489;28;20276;-76
2021/03/10 07:06:17;;;;;;;36.53;23.13;;;;;;;;;;5035868;28;20181;-76
2021/03/10 07:08:44;;;;;;;32.37;22.97;;;;;;;;;;5036907;28;20189;-77
2021/03/10 07:11:10;;;;;;;30.23;21.30;;;;;;;;;;5037039;28;20216;-76
2021/03/10 07:13:37;;;;;;;31.50;21.63;;;;;;;;;;5019546;28;20254;-76
2021/03/10 07:16:03;;;;;;;31.77;22.20;;;;;;;;;;5032302;28;20548;-76
2021/03/10 07:18:30;;;;;;;32.70;21.50;;;;;;;;;;5034743;28;20264;-75
2021/03/10 07:20:57;;;;;;;33.40;22.37;;;;;;;;;;5032502;28;20182;-76
2021/03/10 07:23:24;;;;;;;35.57;22.60;;;;;;;;;;5016403;28;20183;-76
2021/03/10 07:25:51;;;;;;;37.00;23.03;;;;;;;;;;5002799;28;20194;-77
2021/03/10 07:28:30;;;;;;;33.73;22.80;;;;;;;;;;5008232;28;20178;-77
2021/03/10 07:30:56;;;;;;;36.17;23.63;;;;;;;;;;5034294;28;20184;-77
2021/03/10 07:33:23;;;;;;;36.53;23.07;;;;;;;;;;5035384;28;20184;-77
2021/03/10 07:35:56;;;;;;;36.33;23.00;;;;;;;;;;5021603;28;20264;-76
2021/03/10 07:38:25;;;;;;;34.77;23.53;;;;;;;;;;5035461;28;20199;-77
2021/03/10 07:40:52;;;;;;;29.93;22.13;;;;;;;;;;5029225;28;20550;-76
2021/03/10 07:43:19;;;;;;;36.27;22.90;;;;;;;;;;5034157;28;20189;-76
2021/03/10 07:45:45;;;;;;;36.73;23.90;;;;;;;;;;5027609;28;20260;-77
2021/03/10 07:48:12;;;;;;;36.37;23.90;;;;;;;;;;5034407;28;20186;-77
2021/03/10 07:50:44;;;;;;;35.63;24.67;;;;;;;;;;5016577;28;20182;-76
2021/03/10 07:53:11;;;;;;;34.73;23.73;;;;;;;;;;5021658;28;20257;-76
2021/03/10 07:55:48;;;;;;;36.33;24.20;;;;;;;;;;5003300;28;20247;-77
2021/03/10 07:58:25;;;;;;;34.27;23.27;;;;;;;;;;5035743;28;20177;-77
2021/03/10 08:00:51;;;;;;;34.70;23.60;;;;;;;;;;5032402;28;20646;-76
2021/03/10 08:03:33;;;;;;;35.93;23.73;;;;;;;;;;5010882;28;20262;-76
2021/03/10 08:06:00;;;;;;;35.40;23.90;;;;;;;;;;5014507;28;20200;-77
2021/03/10 08:08:33;;;;;;;39.40;24.97;;;;;;;;;;5009130;28;20269;-76
2021/03/10 08:11:10;;;;;;;39.13;24.33;;;;;;;;;;5018089;28;20175;-77
2021/03/10 08:13:36;;;;;;;34.37;23.70;;;;;;;;;;5037380;28;20217;-76
2021/03/10 08:16:06;;;;;;;34.33;22.90;;;;;;;;;;5037366;28;20182;-75
2021/03/10 08:18:33;;;;;;;34.27;23.13;;;;;;;;;;5005703;28;20215;-76
2021/03/10 08:21:09;;;;;;;33.93;23.57;;;;;;;;;;5014428;28;20277;-76
2021/03/10 08:23:35;;;;;;;37.63;22.80;;;;;;;;;;5008662;28;20199;-76
2021/03/10 08:26:03;;;;;;;34.20;22.00;;;;;;;;;;5007575;28;20196;-76
2021/03/10 08:28:32;;;;;;;34.17;22.90;;;;;;;;;;4995657;28;20186;-76
2021/03/10 08:31:02;;;;;;;33.23;23.20;;;;;;;;;;4997763;28;20205;-76
2021/03/10 08:33:29;;;;;;;35.43;21.80;;;;;;;;;;5010442;28;20271;-76
2021/03/10 08:35:55;;;;;;;37.03;23.97;;;;;;;;;;5020584;28;20642;-75
2021/03/10 08:38:21;;;;;;;34.37;23.10;;;;;;;;;;5032148;28;20204;-76
2021/03/10 08:40:48;;;;;;;35.03;22.63;;;;;;;;;;5026018;28;20187;-76
2021/03/10 08:43:18;;;;;;;35.93;22.87;;;;;;;;;;5031581;28;20273;-75
2021/03/10 08:45:44;;;;;;;37.43;23.10;;;;;;;;;;5032024;28;20223;-75
2021/03/10 08:48:12;;;;;;;36.17;23.47;;;;;;;;;;5034306;28;20185;-76
2021/03/10 08:50:39;;;;;;;34.90;23.83;;;;;;;;;;5033233;28;20263;-75
2021/03/10 08:53:06;;;;;;;32.27;21.47;;;;;;;;;;5034166;28;20545;-76
2021/03/10 08:55:32;;;;;;;31.90;21.37;;;;;;;;;;5032543;28;20217;-76
2021/03/10 08:57:59;;;;;;;33.17;21.03;;;;;;;;;;5033925;28;20190;-76
2021/03/10 09:00:27;;;;;;;33.00;21.33;;;;;;;;;;5034008;28;20178;-76
2021/03/10 09:02:53;;;;;;;32.80;20.47;;;;;;;;;;5032707;28;20189;-76
2021/03/10 09:05:29;;;;;;;29.00;19.40;;;;;;;;;;5033729;28;20209;-75
2021/03/10 09:07:55;;;;;;;36.17;21.63;;;;;;;;;;5032589;28;20189;-76
2021/03/10 09:10:23;;;;;;;31.33;20.87;;;;;;;;;;5034359;28;20182;-76
2021/03/10 09:12:51;;;;;;;29.57;21.37;;;;;;;;;;5033835;28;20186;-76
2021/03/10 09:15:21;;;;;;;30.87;21.57;;;;;;;;;;5039941;23;20231;-77
2021/03/10 09:17:47;;;;;;;31.20;20.57;;;;;;;;;;5031690;28;20632;-77
2021/03/10 09:20:34;;;;;;;31.07;20.57;;;;;;;;;;5033943;28;20269;-76
2021/03/10 09:23:00;;;;;;;30.33;20.43;;;;;;;;;;5033481;28;20182;-77
2021/03/10 09:25:30;;;;;;;27.70;18.47;;;;;;;;;;5033407;28;20195;-77
2021/03/10 09:28:06;;;;;;;31.87;22.43;;;;;;;;;;5033674;28;20632;-77
2021/03/10 09:30:34;;;;;;;30.27;21.47;;;;;;;;;;5033473;28;20177;-75
2021/03/10 09:33:00;;;;;;;30.90;20.37;;;;;;;;;;5033390;28;20598;-76
2021/03/10 09:35:36;;;;;;;31.40;20.23;;;;;;;;;;5015497;28;20564;-77
2021/03/10 09:38:10;;;;;;;35.30;22.43;;;;;;;;;;5031268;28;20236;-77
2021/03/10 09:40:43;;;;;;;28.87;20.50;;;;;;;;;;4993956;28;20177;-76
2021/03/10 09:43:10;;;;;;;31.73;20.07;;;;;;;;;;5013335;28;20178;-76
2021/03/10 09:45:37;;;;;;;28.33;20.47;;;;;;;;;;5013596;28;20230;-77
2021/03/10 09:48:04;;;;;;;27.30;19.03;;;;;;;;;;4996365;28;20214;-77
2021/03/10 09:50:32;;;;;;;25.97;18.83;;;;;;;;;;5014004;28;20642;-77
2021/03/10 09:52:59;;;;;;;27.83;18.63;;;;;;;;;;5013796;28;20184;-76
2021/03/10 09:55:26;;;;;;;25.60;18.33;;;;;;;;;;4995419;28;20301;-77
2021/03/10 09:58:05;;;;;;;25.90;17.60;;;;;;;;;;5014266;28;20175;-77
2021/03/10 10:00:31;;;;;;;27.03;18.93;;;;;;;;;;4999871;28;20174;-77
2021/03/10 10:02:57;;;;;;;21.87;15.97;;;;;;;;;;5018085;28;20182;-77
2021/03/10 10:05:30;;;;;;;25.03;17.67;;;;;;;;;;5017579;28;20198;-78
2021/03/10 10:07:57;;;;;;;28.03;20.07;;;;;;;;;;5017344;28;20650;-76
2021/03/10 10:10:26;;;;;;;29.07;19.93;;;;;;;;;;4999731;28;20179;-77
2021/03/10 10:12:54;;;;;;;29.03;19.03;;;;;;;;;;5017379;28;20217;-77
2021/03/10 10:15:29;;;;;;;27.30;20.00;;;;;;;;;;5017176;28;20216;-76
2021/03/10 10:17:56;;;;;;;27.13;19.70;;;;;;;;;;5011288;28;20213;-77
2021/03/10 10:20:24;;;;;;;21.73;16.50;;;;;;;;;;5017794;28;20185;-76
2021/03/10 10:22:51;;;;;;;25.33;16.27;;;;;;;;;;5016967;28;20684;-77
2021/03/10 10:25:17;;;;;;;23.30;16.97;;;;;;;;;;5017130;28;20739;-75
2021/03/10 10:27:47;;;;;;;26.10;17.57;;;;;;;;;;5016992;28;20184;-75
2021/03/10 10:30:18;;;;;;;24.67;18.17;;;;;;;;;;5017067;28;20262;-76
2021/03/10 10:32:45;;;;;;;20.80;16.90;;;;;;;;;;5017095;28;20185;-76
2021/03/10 10:35:12;;;;;;;19.87;15.87;;;;;;;;;;5016922;28;20551;-75
2021/03/10 10:37:38;;;;;;;21.80;16.50;;;;;;;;;;5016884;28;20187;-76
2021/03/10 10:40:09;;;;;;;20.10;15.20;;;;;;;;;;5016941;28;20186;-76
2021/03/10 10:42:35;;;;;;;23.43;16.57;;;;;;;;;;4999346;28;20173;-74
2021/03/10 10:45:02;;;;;;;23.03;17.27;;;;;;;;;;4999255;28;20204;-75
2021/03/10 10:47:28;;;;;;;22.60;16.47;;;;;;;;;;5016531;28;20187;-76
2021/03/10 10:49:54;;;;;;;20.83;15.83;;;;;;;;;;5016541;28;20179;-76
2021/03/10 10:52:21;;;;;;;18.83;14.10;;;;;;;;;;4998970;28;20187;-75
2021/03/10 10:54:47;;;;;;;17.03;14.33;;;;;;;;;;4998734;28;20212;-75
2021/03/10 10:57:13;;;;;;;21.13;16.73;;;;;;;;;;4998838;28;20183;-76
2021/03/10 10:59:40;;;;;;;24.90;15.70;;;;;;;;;;5016514;28;20177;-75
2021/03/10 11:02:06;;;;;;;21.40;16.63;;;;;;;;;;4998693;28;20181;-75
2021/03/10 11:04:32;;;;;;;21.90;16.50;;;;;;;;;;5016581;28;20196;-76
2021/03/10 11:06:58;;;;;;;18.27;15.70;;;;;;;;;;5016194;28;20180;-75
2021/03/10 11:09:25;;;;;;;21.40;15.10;;;;;;;;;;5015733;28;20179;-76
2021/03/10 11:11:52;;;;;;;17.23;14.23;;;;;;;;;;5016158;28;20655;-76
2021/03/10 11:14:18;;;;;;;16.03;13.27;;;;;;;;;;5016618;28;20228;-76
2021/03/10 11:16:44;;;;;;;15.33;12.83;;;;;;;;;;5017383;28;20683;-75
2021/03/10 11:19:11;;;;;;;13.70;11.50;;;;;;;;;;5016234;28;20189;-76
2021/03/10 11:21:37;;;;;;;15.70;13.37;;;;;;;;;;5016117;28;20176;-76
2021/03/10 11:24:03;;;;;;;20.00;14.67;;;;;;;;;;5016078;28;20234;-76
2021/03/10 11:26:32;;;;;;;18.07;14.40;;;;;;;;;;4998511;28;20587;-75
2021/03/10 11:29:15;;;;;;;19.27;14.00;;;;;;;;;;5014448;28;20177;-76
2021/03/10 11:31:41;;;;;;;20.97;15.00;;;;;;;;;;5015855;28;20204;-76
2021/03/10 11:34:07;;;;;;;20.13;16.07;;;;;;;;;;5009504;28;20238;-76
2021/03/10 11:36:34;;;;;;;20.03;15.77;;;;;;;;;;5014419;28;20165;-75
2021/03/10 11:39:00;;;;;;;24.50;17.23;;;;;;;;;;4997963;28;20182;-76
2021/03/10 11:41:25;;;;;;;18.93;15.43;;;;;;;;;;5015298;28;20173;-75
2021/03/10 11:43:52;;;;;;;19.73;14.80;;;;;;;;;;5015497;28;20197;-75
2021/03/10 11:46:18;;;;;;;19.53;15.27;;;;;;;;;;5015493;28;20197;-77
2021/03/10 11:48:44;;;;;;;23.10;17.03;;;;;;;;;;5015359;28;20308;-76
2021/03/10 11:51:10;;;;;;;22.47;16.70;;;;;;;;;;5015415;28;20177;-76
2021/03/10 11:53:36;;;;;;;23.07;16.00;;;;;;;;;;5015104;28;20726;-77
2021/03/10 11:56:02;;;;;;;19.10;15.43;;;;;;;;;;4997837;28;20205;-76
2021/03/10 11:58:28;;;;;;;17.90;14.13;;;;;;;;;;5015529;28;20174;-76
2021/03/10 12:00:55;;;;;;;19.03;15.33;;;;;;;;;;5015412;28;20186;-76
2021/03/10 12:03:21;;;;;;;25.27;16.80;;;;;;;;;;5015487;28;20178;-76
2021/03/10 12:05:47;;;;;;;23.47;16.23;;;;;;;;;;5015007;28;20197;-76
2021/03/10 12:08:13;;;;;;;23.30;15.03;;;;;;;;;;5015315;28;20174;-76
2021/03/10 12:10:41;;;;;;;17.97;14.33;;;;;;;;;;5013058;28;20175;-76
2021/03/10 12:13:07;;;;;;;18.10;13.97;;;;;;;;;;4997388;28;20179;-77
2021/03/10 12:15:33;;;;;;;19.07;14.47;;;;;;;;;;5014812;28;20222;-77
2021/03/10 12:18:00;;;;;;;18.60;14.73;;;;;;;;;;4997431;28;20192;-77
2021/03/10 12:20:26;;;;;;;19.00;14.70;;;;;;;;;;5014237;28;20176;-77
2021/03/10 12:22:52;;;;;;;16.67;13.83;;;;;;;;;;5015165;28;20174;-77
2021/03/10 12:25:19;;;;;;;13.17;11.87;;;;;;;;;;5011439;28;20737;-77
2021/03/10 12:27:45;;;;;;;13.90;12.37;;;;;;;;;;5010952;28;20272;-76
2021/03/10 12:30:11;;;;;;;14.80;12.47;;;;;;;;;;4997013;28;20178;-77
2021/03/10 12:32:38;;;;;;;20.70;14.67;;;;;;;;;;5015048;28;20186;-77
2021/03/10 12:35:05;;;;;;;18.50;12.93;;;;;;;;;;5015137;28;20229;-77
2021/03/10 12:37:31;;;;;;;16.43;13.23;;;;;;;;;;5014480;28;20265;-77
2021/03/10 12:39:58;;;;;;;15.37;13.20;;;;;;;;;;4980787;28;20183;-77
2021/03/10 12:42:24;;;;;;;14.73;12.70;;;;;;;;;;5014080;28;20191;-77
2021/03/10 12:44:50;;;;;;;12.30;11.07;;;;;;;;;;4996380;28;20214;-77
2021/03/10 12:47:17;;;;;;;14.47;11.00;;;;;;;;;;5013951;28;20266;-77
2021/03/10 12:49:43;;;;;;;12.67;10.87;;;;;;;;;;5013863;28;20184;-77
2021/03/10 12:52:09;;;;;;;14.43;10.87;;;;;;;;;;5014024;28;20189;-77
2021/03/10 12:54:36;;;;;;;13.40;11.70;;;;;;;;;;5014438;28;20527;-77
2021/03/10 12:57:02;;;;;;;12.07;10.80;;;;;;;;;;4980672;28;20182;-77
2021/03/10 12:59:29;;;;;;;10.57;9.20;;;;;;;;;;5014291;28;20540;-77
2021/03/10 13:01:55;;;;;;;12.00;10.70;;;;;;;;;;5014357;28;20265;-77
2021/03/10 13:04:21;;;;;;;16.50;12.63;;;;;;;;;;4995980;28;20558;-77
2021/03/10 13:06:47;;;;;;;14.33;12.27;;;;;;;;;;4996201;28;20194;-76
2021/03/10 13:09:14;;;;;;;14.40;11.13;;;;;;;;;;5014142;28;20230;-77
2021/03/10 13:11:40;;;;;;;15.13;12.33;;;;;;;;;;5014148;28;20214;-77
2021/03/10 13:14:06;;;;;;;13.80;12.27;;;;;;;;;;4995454;28;20198;-77
2021/03/10 13:16:33;;;;;;;13.57;11.87;;;;;;;;;;5013972;28;20640;-77
2021/03/10 13:18:59;;;;;;;13.17;11.77;;;;;;;;;;5010884;28;20180;-77
2021/03/10 13:21:25;;;;;;;14.90;11.93;;;;;;;;;;4996256;28;20230;-77
2021/03/10 13:23:51;;;;;;;12.23;10.97;;;;;;;;;;4996366;28;20276;-77
2021/03/10 13:26:17;;;;;;;13.50;11.77;;;;;;;;;;4979994;28;20205;-77
2021/03/10 13:28:43;;;;;;;12.90;11.33;;;;;;;;;;5010499;28;20700;-76
2021/03/10 13:31:10;;;;;;;12.67;11.37;;;;;;;;;;5011409;28;20171;-77
2021/03/10 13:33:36;;;;;;;13.53;11.63;;;;;;;;;;5013339;28;20186;-76
2021/03/10 13:36:02;;;;;;;13.13;11.70;;;;;;;;;;5013433;28;20201;-77
2021/03/10 13:38:28;;;;;;;13.73;11.47;;;;;;;;;;5012761;28;20264;-77
2021/03/10 13:40:55;;;;;;;11.97;10.83;;;;;;;;;;5013042;28;20234;-76
2021/03/10 13:43:22;;;;;;;12.03;10.83;;;;;;;;;;4995753;28;20178;-77
2021/03/10 13:45:48;;;;;;;15.47;11.80;;;;;;;;;;5013512;28;20699;-77
2021/03/10 13:48:14;;;;;;;13.47;11.70;;;;;;;;;;5012702;28;20194;-77
2021/03/10 13:50:44;;;;;;;11.87;10.73;;;;;;;;;;4995755;28;20182;-75
2021/03/10 13:53:10;;;;;;;14.27;10.93;;;;;;;;;;5013409;28;20670;-77
2021/03/10 13:55:36;;;;;;;12.37;11.07;;;;;;;;;;5013121;28;20210;-77
2021/03/10 13:58:02;;;;;;;13.07;10.17;;;;;;;;;;4995765;28;20224;-76
2021/03/10 14:00:28;;;;;;;12.67;10.13;;;;;;;;;;5011843;28;20650;-76
2021/03/10 14:02:55;;;;;;;12.00;10.43;;;;;;;;;;5007043;28;20703;-77
2021/03/10 14:05:21;;;;;;;14.90;10.83;;;;;;;;;;4979696;28;20207;-77
2021/03/10 14:07:47;;;;;;;9.50;8.53;;;;;;;;;;5013243;28;20184;-77
2021/03/10 14:10:13;;;;;;;10.47;9.33;;;;;;;;;;5013269;28;20689;-76
2021/03/10 14:12:40;;;;;;;11.47;9.37;;;;;;;;;;5013276;28;20177;-76
2021/03/10 14:15:07;;;;;;;10.33;9.27;;;;;;;;;;5012549;28;20702;-77
2021/03/10 14:17:33;;;;;;;10.57;9.53;;;;;;;;;;5012831;28;20175;-77
2021/03/10 14:19:59;;;;;;;9.13;8.23;;;;;;;;;;5007028;28;20178;-77
2021/03/10 14:22:25;;;;;;;12.80;9.17;;;;;;;;;;5012591;28;20232;-77